Terminal Aerodrome Forecast
Issued by NWS

Current Version | Previous Version | Graphics & Text | Print | Product List | Glossary On
Versions: 1 2 3 4 5 6 7 8 9 10 11 12 13 14 15 16 17 18 19 20 21 22 23 24 25
000
FTUS41 KRNK 221412 AAA
TAFLWB
TAF AMD
KLWB 221412Z 2214/2312 00000KT 4SM -RA BR SCT002 OVC070
      TEMPO 2214/2215 2SM -RA BR OVC002
     FM221500 13003KT 3SM -RA BR OVC006
     FM221700 VRB03KT 4SM BR OVC020
      TEMPO 2217/2219 2SM -RA BR OVC007
     FM221900 VRB03KT P6SM OVC030
     FM230000 00000KT 4SM BR BKN010
     FM230500 00000KT 4SM BR OVC003=

USA.gov is the U.S. government's official web portal to all federal, state and local government web resources and services.